sensor_id;sensor_type;location;lat;lon;timestamp;pressure;altitude;pressure_sealevel;temperature;humidity
23574;BME280;11965;53.640;10.050;2024-02-21T00:00:00;101640.91;;;8.62;100.00
23574;BME280;11965;53.640;10.050;2024-02-21T00:02:29;101640.59;;;8.66;100.00
23574;BME280;11965;53.640;10.050;2024-02-21T00:04:56;101639.88;;;8.63;100.00
23574;BME280;11965;53.640;10.050;2024-02-21T00:07:23;101630.22;;;8.68;100.00
23574;BME280;11965;53.640;10.050;2024-02-21T00:09:51;101635.81;;;8.76;100.00
23574;BME280;11965;53.640;10.050;2024-02-21T00:12:18;101628.56;;;8.83;100.00
23574;BME280;11965;53.640;10.050;2024-02-21T00:14:45;101628.53;;;8.75;100.00
23574;BME280;11965;53.640;10.050;2024-02-21T00:17:13;101624.38;;;8.71;100.00
23574;BME280;11965;53.640;10.050;2024-02-21T00:19:40;101622.66;;;8.78;100.00
23574;BME280;11965;53.640;10.050;2024-02-21T00:22:07;101626.16;;;8.80;100.00
23574;BME280;11965;53.640;10.050;2024-02-21T00:24:34;101616.94;;;8.71;100.00
23574;BME280;11965;53.640;10.050;2024-02-21T00:27:01;101609.00;;;8.68;100.00
23574;BME280;11965;53.640;10.050;2024-02-21T00:29:28;101607.03;;;8.60;100.00
23574;BME280;11965;53.640;10.050;2024-02-21T00:31:55;101606.00;;;8.61;100.00
23574;BME280;11965;53.640;10.050;2024-02-21T00:34:24;101588.34;;;8.54;100.00
23574;BME280;11965;53.640;10.050;2024-02-21T00:36:51;101569.19;;;8.35;100.00
23574;BME280;11965;53.640;10.050;2024-02-21T00:39:18;101588.78;;;8.42;100.00
23574;BME280;11965;53.640;10.050;2024-02-21T00:41:44;101593.38;;;8.59;100.00
23574;BME280;11965;53.640;10.050;2024-02-21T00:44:12;101585.47;;;8.64;100.00
23574;BME280;11965;53.640;10.050;2024-02-21T00:46:38;101586.16;;;8.66;100.00
23574;BME280;11965;53.640;10.050;2024-02-21T00:49:05;101579.22;;;8.62;100.00
23574;BME280;11965;53.640;10.050;2024-02-21T00:51:34;101585.88;;;8.77;100.00
23574;BME280;11965;53.640;10.050;2024-02-21T00:54:01;101569.09;;;8.71;100.00
23574;BME280;11965;53.640;10.050;2024-02-21T00:56:28;101581.16;;;8.70;100.00
23574;BME280;11965;53.640;10.050;2024-02-21T00:58:55;101571.78;;;8.54;100.00
23574;BME280;11965;53.640;10.050;2024-02-21T01:01:22;101565.44;;;8.70;100.00
23574;BME280;11965;53.640;10.050;2024-02-21T01:03:49;101571.38;;;8.83;100.00
23574;BME280;11965;53.640;10.050;2024-02-21T01:06:16;101545.38;;;8.60;100.00
23574;BME280;11965;53.640;10.050;2024-02-21T01:08:45;101553.91;;;8.75;100.00
23574;BME280;11965;53.640;10.050;2024-02-21T01:11:12;101557.38;;;8.77;100.00
23574;BME280;11965;53.640;10.050;2024-02-21T01:13:39;101545.47;;;8.76;100.00
23574;BME280;11965;53.640;10.050;2024-02-21T01:16:07;101544.63;;;8.84;100.00
23574;BME280;11965;53.640;10.050;2024-02-21T01:18:34;101551.03;;;8.84;100.00
23574;BME280;11965;53.640;10.050;2024-02-21T01:21:01;101543.06;;;8.81;100.00
23574;BME280;11965;53.640;10.050;2024-02-21T01:23:28;101525.03;;;8.69;100.00
23574;BME280;11965;53.640;10.050;2024-02-21T01:25:56;101536.44;;;8.66;100.00
23574;BME280;11965;53.640;10.050;2024-02-21T01:28:22;101527.69;;;8.79;100.00
23574;BME280;11965;53.640;10.050;2024-02-21T01:30:49;101536.31;;;8.76;100.00
23574;BME280;11965;53.640;10.050;2024-02-21T01:33:16;101533.53;;;8.76;100.00
23574;BME280;11965;53.640;10.050;2024-02-21T01:35:43;101532.00;;;8.81;100.00
23574;BME280;11965;53.640;10.050;2024-02-21T01:38:10;101524.66;;;8.64;100.00
23574;BME280;11965;53.640;10.050;2024-02-21T01:40:37;101518.44;;;8.62;100.00
23574;BME280;11965;53.640;10.050;2024-02-21T01:43:15;101517.88;;;8.50;100.00
23574;BME280;11965;53.640;10.050;2024-02-21T01:45:42;101508.56;;;8.59;100.00
23574;BME280;11965;53.640;10.050;2024-02-21T01:48:09;101490.94;;;8.52;100.00
23574;BME280;11965;53.640;10.050;2024-02-21T01:50:36;101497.56;;;8.33;100.00
23574;BME280;11965;53.640;10.050;2024-02-21T01:53:03;101489.75;;;8.29;100.00
23574;BME280;11965;53.640;10.050;2024-02-21T01:55:31;101482.38;;;8.37;100.00
23574;BME280;11965;53.640;10.050;2024-02-21T01:57:58;101494.88;;;8.42;100.00
23574;BME280;11965;53.640;10.050;2024-02-21T02:00:27;101481.50;;;8.37;100.00
23574;BME280;11965;53.640;10.050;2024-02-21T02:02:55;101473.50;;;8.26;100.00
23574;BME280;11965;53.640;10.050;2024-02-21T02:05:22;101488.66;;;8.22;100.00
23574;BME280;11965;53.640;10.050;2024-02-21T02:07:49;101465.38;;;8.24;100.00
23574;BME280;11965;53.640;10.050;2024-02-21T02:10:16;101455.91;;;8.27;100.00
23574;BME280;11965;53.640;10.050;2024-02-21T02:12:43;101436.00;;;8.15;100.00
23574;BME280;11965;53.640;10.050;2024-02-21T02:15:10;101440.47;;;8.16;100.00
23574;BME280;11965;53.640;10.050;2024-02-21T02:17:38;101419.44;;;8.15;100.00
23574;BME280;11965;53.640;10.050;2024-02-21T02:20:07;101398.34;;;8.14;100.00
23574;BME280;11965;53.640;10.050;2024-02-21T02:22:37;101377.97;;;8.07;100.00
23574;BME280;11965;53.640;10.050;2024-02-21T02:25:07;101356.59;;;8.09;100.00
23574;BME280;11965;53.640;10.050;2024-02-21T02:27:41;101327.41;;;7.98;100.00
23574;BME280;11965;53.640;10.050;2024-02-21T02:30:11;101299.09;;;7.96;100.00
23574;BME280;11965;53.640;10.050;2024-02-21T02:32:38;101314.66;;;8.13;100.00
23574;BME280;11965;53.640;10.050;2024-02-21T02:35:05;101323.50;;;8.17;100.00
23574;BME280;11965;53.640;10.050;2024-02-21T02:37:32;101355.44;;;8.19;100.00
23574;BME280;11965;53.640;10.050;2024-02-21T02:39:59;101362.31;;;8.15;100.00
23574;BME280;11965;53.640;10.050;2024-02-21T02:42:27;101387.06;;;8.33;100.00
23574;BME280;11965;53.640;10.050;2024-02-21T02:44:54;101376.66;;;8.27;100.00
23574;BME280;11965;53.640;10.050;2024-02-21T02:47:22;101372.31;;;8.16;100.00
23574;BME280;11965;53.640;10.050;2024-02-21T02:49:49;101368.69;;;8.16;100.00
23574;BME280;11965;53.640;10.050;2024-02-21T02:52:16;101370.13;;;8.28;100.00
23574;BME280;11965;53.640;10.050;2024-02-21T02:54:44;101359.41;;;8.25;100.00
23574;BME280;11965;53.640;10.050;2024-02-21T02:57:11;101361.63;;;8.22;100.00
23574;BME280;11965;53.640;10.050;2024-02-21T02:59:40;101368.72;;;8.24;100.00
23574;BME280;11965;53.640;10.050;2024-02-21T03:02:07;101378.56;;;8.27;100.00
23574;BME280;11965;53.640;10.050;2024-02-21T03:04:34;101374.19;;;8.42;100.00
23574;BME280;11965;53.640;10.050;2024-02-21T03:07:00;101371.88;;;8.37;100.00
23574;BME280;11965;53.640;10.050;2024-02-21T03:09:27;101378.25;;;8.38;100.00
23574;BME280;11965;53.640;10.050;2024-02-21T03:11:54;101386.44;;;8.39;100.00
23574;BME280;11965;53.640;10.050;2024-02-21T03:14:28;101380.56;;;8.43;100.00
23574;BME280;11965;53.640;10.050;2024-02-21T03:16:56;101390.03;;;8.40;100.00
23574;BME280;11965;53.640;10.050;2024-02-21T03:19:24;101391.38;;;8.28;100.00
23574;BME280;11965;53.640;10.050;2024-02-21T03:21:51;101386.09;;;8.43;100.00
23574;BME280;11965;53.640;10.050;2024-02-21T03:24:18;101374.34;;;8.49;100.00
23574;BME280;11965;53.640;10.050;2024-02-21T03:26:46;101379.38;;;8.53;100.00
23574;BME280;11965;53.640;10.050;2024-02-21T03:29:14;101382.63;;;8.40;100.00
23574;BME280;11965;53.640;10.050;2024-02-21T03:31:42;101378.16;;;8.48;100.00
23574;BME280;11965;53.640;10.050;2024-02-21T03:34:11;101379.38;;;8.45;100.00
23574;BME280;11965;53.640;10.050;2024-02-21T03:36:38;101378.13;;;8.39;100.00
23574;BME280;11965;53.640;10.050;2024-02-21T03:39:05;101379.31;;;8.37;100.00
23574;BME280;11965;53.640;10.050;2024-02-21T03:41:33;101374.53;;;8.47;100.00
23574;BME280;11965;53.640;10.050;2024-02-21T03:44:00;101373.00;;;8.61;100.00
23574;BME280;11965;53.640;10.050;2024-02-21T03:46:27;101377.84;;;8.59;100.00
23574;BME280;11965;53.640;10.050;2024-02-21T03:48:54;101381.31;;;8.61;100.00
23574;BME280;11965;53.640;10.050;2024-02-21T03:51:22;101381.66;;;8.58;100.00
23574;BME280;11965;53.640;10.050;2024-02-21T03:53:49;101382.63;;;8.49;100.00
23574;BME280;11965;53.640;10.050;2024-02-21T03:56:16;101360.88;;;8.46;100.00
23574;BME280;11965;53.640;10.050;2024-02-21T03:58:43;101375.25;;;8.57;100.00
23574;BME280;11965;53.640;10.050;2024-02-21T04:01:10;101371.47;;;8.58;100.00
23574;BME280;11965;53.640;10.050;2024-02-21T04:03:37;101372.50;;;8.57;100.00
23574;BME280;11965;53.640;10.050;2024-02-21T04:06:05;101367.31;;;8.54;100.00
23574;BME280;11965;53.640;10.050;2024-02-21T04:08:33;101355.00;;;8.49;100.00
23574;BME280;11965;53.640;10.050;2024-02-21T04:11:00;101362.09;;;8.51;100.00
23574;BME280;11965;53.640;10.050;2024-02-21T04:13:27;101349.16;;;8.44;100.00
23574;BME280;11965;53.640;10.050;2024-02-21T04:15:54;101351.03;;;8.43;100.00
23574;BME280;11965;53.640;10.050;2024-02-21T04:18:22;101357.28;;;8.53;100.00
23574;BME280;11965;53.640;10.050;2024-02-21T04:20:51;101348.97;;;8.45;100.00
23574;BME280;11965;53.640;10.050;2024-02-21T04:23:18;101345.00;;;8.39;100.00
23574;BME280;11965;53.640;10.050;2024-02-21T04:25:47;101339.59;;;8.38;100.00
23574;BME280;11965;53.640;10.050;2024-02-21T04:28:14;101332.91;;;8.40;100.00
23574;BME280;11965;53.640;10.050;2024-02-21T04:30:41;101340.31;;;8.40;100.00
23574;BME280;11965;53.640;10.050;2024-02-21T04:33:08;101338.03;;;8.35;100.00
23574;BME280;11965;53.640;10.050;2024-02-21T04:35:35;101337.94;;;8.53;100.00
23574;BME280;11965;53.640;10.050;2024-02-21T04:38:03;101331.03;;;8.49;100.00
23574;BME280;11965;53.640;10.050;2024-02-21T04:40:30;101342.59;;;8.53;100.00
23574;BME280;11965;53.640;10.050;2024-02-21T04:42:58;101342.03;;;8.33;100.00
23574;BME280;11965;53.640;10.050;2024-02-21T04:45:25;101340.69;;;8.45;100.00
23574;BME280;11965;53.640;10.050;2024-02-21T04:47:52;101334.66;;;8.42;100.00
23574;BME280;11965;53.640;10.050;2024-02-21T04:50:19;101328.06;;;8.43;100.00
23574;BME280;11965;53.640;10.050;2024-02-21T04:52:46;101336.72;;;8.48;100.00
23574;BME280;11965;53.640;10.050;2024-02-21T04:55:13;101336.38;;;8.51;100.00
23574;BME280;11965;53.640;10.050;2024-02-21T04:57:40;101334.94;;;8.38;100.00
23574;BME280;11965;53.640;10.050;2024-02-21T05:00:09;101337.22;;;8.43;100.00
23574;BME280;11965;53.640;10.050;2024-02-21T05:02:36;101329.47;;;8.47;100.00
23574;BME280;11965;53.640;10.050;2024-02-21T05:05:03;101330.50;;;8.46;100.00
23574;BME280;11965;53.640;10.050;2024-02-21T05:07:32;101330.44;;;8.37;100.00
23574;BME280;11965;53.640;10.050;2024-02-21T05:10:01;101325.97;;;8.36;100.00
23574;BME280;11965;53.640;10.050;2024-02-21T05:12:29;101318.16;;;8.32;100.00
23574;BME280;11965;53.640;10.050;2024-02-21T05:14:56;101319.56;;;8.28;100.00
23574;BME280;11965;53.640;10.050;2024-02-21T05:17:24;101308.66;;;8.26;100.00
23574;BME280;11965;53.640;10.050;2024-02-21T05:19:51;101310.75;;;8.32;100.00
23574;BME280;11965;53.640;10.050;2024-02-21T05:22:18;101318.34;;;8.22;100.00
23574;BME280;11965;53.640;10.050;2024-02-21T05:24:45;101322.13;;;8.21;100.00
23574;BME280;11965;53.640;10.050;2024-02-21T05:27:12;101317.28;;;8.23;100.00
23574;BME280;11965;53.640;10.050;2024-02-21T05:29:39;101320.66;;;8.43;100.00
23574;BME280;11965;53.640;10.050;2024-02-21T05:32:06;101327.31;;;8.32;100.00
23574;BME280;11965;53.640;10.050;2024-02-21T05:34:34;101328.84;;;8.27;100.00
23574;BME280;11965;53.640;10.050;2024-02-21T05:37:01;101302.97;;;8.19;100.00
23574;BME280;11965;53.640;10.050;2024-02-21T05:39:28;101316.97;;;8.34;100.00
23574;BME280;11965;53.640;10.050;2024-02-21T05:41:55;101309.38;;;8.28;100.00
23574;BME280;11965;53.640;10.050;2024-02-21T05:44:22;101308.81;;;8.25;100.00
23574;BME280;11965;53.640;10.050;2024-02-21T05:46:49;101311.78;;;8.31;100.00
23574;BME280;11965;53.640;10.050;2024-02-21T05:49:17;101306.78;;;8.35;100.00
23574;BME280;11965;53.640;10.050;2024-02-21T05:51:45;101311.63;;;8.33;100.00
23574;BME280;11965;53.640;10.050;2024-02-21T05:54:12;101314.72;;;8.38;100.00
23574;BME280;11965;53.640;10.050;2024-02-21T05:56:39;101303.66;;;8.30;100.00
23574;BME280;11965;53.640;10.050;2024-02-21T05:59:10;101308.50;;;8.28;100.00
23574;BME280;11965;53.640;10.050;2024-02-21T06:01:37;101316.81;;;8.36;100.00
23574;BME280;11965;53.640;10.050;2024-02-21T06:04:04;101310.41;;;8.35;100.00
23574;BME280;11965;53.640;10.050;2024-02-21T06:06:31;101317.66;;;8.28;100.00
23574;BME280;11965;53.640;10.050;2024-02-21T06:09:00;101327.50;;;8.31;100.00
23574;BME280;11965;53.640;10.050;2024-02-21T06:11:28;101326.31;;;8.33;100.00
23574;BME280;11965;53.640;10.050;2024-02-21T06:13:56;101336.16;;;8.36;100.00
23574;BME280;11965;53.640;10.050;2024-02-21T06:16:23;101334.22;;;8.28;100.00
23574;BME280;11965;53.640;10.050;2024-02-21T06:18:50;101340.59;;;8.29;100.00
23574;BME280;11965;53.640;10.050;2024-02-21T06:21:17;101336.50;;;8.33;100.00
23574;BME280;11965;53.640;10.050;2024-02-21T06:23:43;101337.34;;;8.33;100.00
23574;BME280;11965;53.640;10.050;2024-02-21T06:26:12;101334.25;;;8.36;100.00
23574;BME280;11965;53.640;10.050;2024-02-21T06:28:39;101334.81;;;8.40;100.00
23574;BME280;11965;53.640;10.050;2024-02-21T06:31:05;101332.84;;;8.32;100.00
23574;BME280;11965;53.640;10.050;2024-02-21T06:33:32;101343.03;;;8.32;100.00
23574;BME280;11965;53.640;10.050;2024-02-21T06:35:59;101339.25;;;8.33;100.00
23574;BME280;11965;53.640;10.050;2024-02-21T06:38:26;101345.13;;;8.38;100.00
23574;BME280;11965;53.640;10.050;2024-02-21T06:40:53;101342.94;;;8.42;100.00
23574;BME280;11965;53.640;10.050;2024-02-21T06:43:21;101336.56;;;8.41;100.00
23574;BME280;11965;53.640;10.050;2024-02-21T06:45:48;101339.13;;;8.43;100.00
23574;BME280;11965;53.640;10.050;2024-02-21T06:48:17;101333.19;;;8.29;100.00
23574;BME280;11965;53.640;10.050;2024-02-21T06:50:45;101342.53;;;8.36;100.00
23574;BME280;11965;53.640;10.050;2024-02-21T06:53:12;101333.88;;;8.31;100.00
23574;BME280;11965;53.640;10.050;2024-02-21T06:55:39;101340.63;;;8.37;100.00
23574;BME280;11965;53.640;10.050;2024-02-21T06:58:06;101337.41;;;8.42;100.00
23574;BME280;11965;53.640;10.050;2024-02-21T07:00:38;101340.88;;;8.44;100.00
23574;BME280;11965;53.640;10.050;2024-02-21T07:03:05;101331.03;;;8.41;100.00
23574;BME280;11965;53.640;10.050;2024-02-21T07:05:32;101331.53;;;8.45;100.00
23574;BME280;11965;53.640;10.050;2024-02-21T07:07:59;101333.81;;;8.49;100.00
23574;BME280;11965;53.640;10.050;2024-02-21T07:10:26;101330.31;;;8.39;100.00
23574;BME280;11965;53.640;10.050;2024-02-21T07:12:54;101332.41;;;8.45;100.00
23574;BME280;11965;53.640;10.050;2024-02-21T07:15:21;101330.50;;;8.46;100.00
23574;BME280;11965;53.640;10.050;2024-02-21T07:17:49;101329.63;;;8.45;100.00
23574;BME280;11965;53.640;10.050;2024-02-21T07:20:16;101323.28;;;8.53;100.00
23574;BME280;11965;53.640;10.050;2024-02-21T07:22:43;101323.13;;;8.54;100.00
23574;BME280;11965;53.640;10.050;2024-02-21T07:25:10;101338.50;;;8.65;100.00
23574;BME280;11965;53.640;10.050;2024-02-21T07:27:37;101341.91;;;8.51;100.00
23574;BME280;11965;53.640;10.050;2024-02-21T07:30:05;101345.22;;;8.62;100.00
23574;BME280;11965;53.640;10.050;2024-02-21T07:32:32;101349.19;;;8.60;100.00
23574;BME280;11965;53.640;10.050;2024-02-21T07:35:00;101346.94;;;8.63;100.00
23574;BME280;11965;53.640;10.050;2024-02-21T07:37:27;101346.09;;;8.71;100.00
23574;BME280;11965;53.640;10.050;2024-02-21T07:39:54;101359.91;;;8.71;100.00
23574;BME280;11965;53.640;10.050;2024-02-21T07:42:21;101368.03;;;8.73;100.00
23574;BME280;11965;53.640;10.050;2024-02-21T07:44:48;101361.47;;;8.66;100.00
23574;BME280;11965;53.640;10.050;2024-02-21T07:47:15;101362.31;;;8.66;100.00
23574;BME280;11965;53.640;10.050;2024-02-21T07:49:44;101351.28;;;8.66;100.00
23574;BME280;11965;53.640;10.050;2024-02-21T07:52:13;101357.28;;;8.61;100.00
23574;BME280;11965;53.640;10.050;2024-02-21T07:54:40;101339.84;;;8.61;100.00
23574;BME280;11965;53.640;10.050;2024-02-21T07:57:07;101347.81;;;8.64;100.00
23574;BME280;11965;53.640;10.050;2024-02-21T07:59:34;101355.75;;;8.67;100.00
23574;BME280;11965;53.640;10.050;2024-02-21T08:02:01;101357.66;;;8.75;100.00
23574;BME280;11965;53.640;10.050;2024-02-21T08:04:32;101355.41;;;8.70;100.00
23574;BME280;11965;53.640;10.050;2024-02-21T08:06:59;101359.22;;;8.77;100.00
23574;BME280;11965;53.640;10.050;2024-02-21T08:09:31;101347.66;;;8.82;100.00
23574;BME280;11965;53.640;10.050;2024-02-21T08:11:58;101343.00;;;8.91;100.00
23574;BME280;11965;53.640;10.050;2024-02-21T08:14:25;101341.28;;;8.98;100.00
23574;BME280;11965;53.640;10.050;2024-02-21T08:16:52;101344.72;;;9.00;100.00
23574;BME280;11965;53.640;10.050;2024-02-21T08:19:21;101341.81;;;9.10;100.00
23574;BME280;11965;53.640;10.050;2024-02-21T08:21:48;101343.34;;;9.28;100.00
23574;BME280;11965;53.640;10.050;2024-02-21T08:24:15;101337.81;;;9.28;100.00
23574;BME280;11965;53.640;10.050;2024-02-21T08:26:44;101335.22;;;9.35;100.00
23574;BME280;11965;53.640;10.050;2024-02-21T08:29:12;101330.56;;;9.27;100.00
23574;BME280;11965;53.640;10.050;2024-02-21T08:31:39;101338.31;;;9.32;100.00
23574;BME280;11965;53.640;10.050;2024-02-21T08:34:06;101325.38;;;9.41;100.00
23574;BME280;11965;53.640;10.050;2024-02-21T08:36:34;101335.25;;;9.27;100.00
23574;BME280;11965;53.640;10.050;2024-02-21T08:39:03;101332.13;;;9.22;100.00
23574;BME280;11965;53.640;10.050;2024-02-21T08:41:31;101315.66;;;9.45;100.00
23574;BME280;11965;53.640;10.050;2024-02-21T08:44:00;101328.72;;;9.84;100.00
23574;BME280;11965;53.640;10.050;2024-02-21T08:46:27;101329.72;;;9.91;100.00
23574;BME280;11965;53.640;10.050;2024-02-21T08:48:54;101323.88;;;9.69;100.00
23574;BME280;11965;53.640;10.050;2024-02-21T08:51:21;101330.53;;;9.44;100.00
23574;BME280;11965;53.640;10.050;2024-02-21T08:53:48;101320.31;;;9.52;100.00
23574;BME280;11965;53.640;10.050;2024-02-21T08:56:15;101326.88;;;9.60;100.00
23574;BME280;11965;53.640;10.050;2024-02-21T08:58:43;101329.81;;;9.58;100.00
23574;BME280;11965;53.640;10.050;2024-02-21T09:01:11;101326.69;;;9.53;100.00
23574;BME280;11965;53.640;10.050;2024-02-21T09:03:39;101338.66;;;9.37;100.00
23574;BME280;11965;53.640;10.050;2024-02-21T09:06:07;101330.72;;;9.34;100.00
23574;BME280;11965;53.640;10.050;2024-02-21T09:08:35;101332.63;;;9.34;100.00
23574;BME280;11965;53.640;10.050;2024-02-21T09:11:02;101328.81;;;9.35;100.00
23574;BME280;11965;53.640;10.050;2024-02-21T09:13:29;101328.28;;;9.47;100.00
23574;BME280;11965;53.640;10.050;2024-02-21T09:15:56;101319.47;;;9.44;100.00
23574;BME280;11965;53.640;10.050;2024-02-21T09:18:25;101318.41;;;9.45;100.00
23574;BME280;11965;53.640;10.050;2024-02-21T09:20:51;101322.25;;;9.27;100.00
23574;BME280;11965;53.640;10.050;2024-02-21T09:23:18;101318.13;;;9.15;100.00
23574;BME280;11965;53.640;10.050;2024-02-21T09:25:46;101317.22;;;9.39;100.00
23574;BME280;11965;53.640;10.050;2024-02-21T09:28:13;101312.50;;;9.56;100.00
23574;BME280;11965;53.640;10.050;2024-02-21T09:30:40;101308.34;;;9.68;100.00
23574;BME280;11965;53.640;10.050;2024-02-21T09:33:06;101298.53;;;9.49;100.00
23574;BME280;11965;53.640;10.050;2024-02-21T09:35:35;101301.75;;;9.69;100.00
23574;BME280;11965;53.640;10.050;2024-02-21T09:38:02;101313.53;;;9.63;100.00
23574;BME280;11965;53.640;10.050;2024-02-21T09:40:29;101289.00;;;9.60;100.00
23574;BME280;11965;53.640;10.050;2024-02-21T09:43:02;101294.41;;;9.29;100.00
23574;BME280;11965;53.640;10.050;2024-02-21T09:45:33;101307.22;;;9.30;100.00
23574;BME280;11965;53.640;10.050;2024-02-21T09:48:19;101300.47;;;9.33;100.00
23574;BME280;11965;53.640;10.050;2024-02-21T09:50:51;101300.66;;;9.23;100.00
23574;BME280;11965;53.640;10.050;2024-02-21T09:53:20;101291.97;;;9.34;100.00
23574;BME280;11965;53.640;10.050;2024-02-21T09:55:50;101296.31;;;9.28;100.00
23574;BME280;11965;53.640;10.050;2024-02-21T09:58:17;101285.97;;;9.22;100.00
23574;BME280;11965;53.640;10.050;2024-02-21T10:00:44;101279.56;;;9.22;100.00
23574;BME280;11965;53.640;10.050;2024-02-21T10:03:11;101298.38;;;9.35;100.00
23574;BME280;11965;53.640;10.050;2024-02-21T10:05:48;101293.53;;;9.37;100.00
23574;BME280;11965;53.640;10.050;2024-02-21T10:08:17;101295.25;;;9.54;100.00
23574;BME280;11965;53.640;10.050;2024-02-21T10:10:45;101299.69;;;9.63;100.00
23574;BME280;11965;53.640;10.050;2024-02-21T10:13:24;101300.59;;;9.56;100.00
23574;BME280;11965;53.640;10.050;2024-02-21T10:16:01;101291.75;;;9.60;100.00
23574;BME280;11965;53.640;10.050;2024-02-21T10:18:28;101287.50;;;9.41;100.00
23574;BME280;11965;53.640;10.050;2024-02-21T10:21:03;101290.97;;;9.27;100.00
23574;BME280;11965;53.640;10.050;2024-02-21T10:23:42;101289.09;;;9.03;100.00
23574;BME280;11965;53.640;10.050;2024-02-21T10:26:09;101283.38;;;9.13;100.00
23574;BME280;11965;53.640;10.050;2024-02-21T10:28:37;101273.53;;;8.94;100.00
23574;BME280;11965;53.640;10.050;2024-02-21T10:31:08;101291.88;;;8.95;100.00
23574;BME280;11965;53.640;10.050;2024-02-21T10:33:35;101277.50;;;8.91;100.00
23574;BME280;11965;53.640;10.050;2024-02-21T10:36:07;101278.56;;;8.98;100.00
23574;BME280;11965;53.640;10.050;2024-02-21T10:38:35;101276.81;;;8.89;100.00
23574;BME280;11965;53.640;10.050;2024-02-21T10:41:05;101275.59;;;8.92;100.00
23574;BME280;11965;53.640;10.050;2024-02-21T10:43:38;101266.81;;;8.80;100.00
23574;BME280;11965;53.640;10.050;2024-02-21T10:46:07;101275.09;;;8.96;100.00
23574;BME280;11965;53.640;10.050;2024-02-21T10:48:42;101263.53;;;9.01;100.00
23574;BME280;11965;53.640;10.050;2024-02-21T10:51:15;101267.63;;;9.13;100.00
23574;BME280;11965;53.640;10.050;2024-02-21T10:53:46;101261.78;;;9.16;100.00
23574;BME280;11965;53.640;10.050;2024-02-21T10:56:22;101252.25;;;9.11;100.00
23574;BME280;11965;53.640;10.050;2024-02-21T10:58:50;101243.44;;;9.15;100.00
23574;BME280;11965;53.640;10.050;2024-02-21T11:01:18;101240.91;;;8.97;100.00
23574;BME280;11965;53.640;10.050;2024-02-21T11:03:48;101240.53;;;9.09;100.00
23574;BME280;11965;53.640;10.050;2024-02-21T11:06:17;101241.53;;;9.16;100.00
23574;BME280;11965;53.640;10.050;2024-02-21T11:08:46;101243.97;;;9.19;100.00
23574;BME280;11965;53.640;10.050;2024-02-21T11:11:15;101243.09;;;9.18;100.00
23574;BME280;11965;53.640;10.050;2024-02-21T11:13:46;101244.50;;;9.14;100.00
23574;BME280;11965;53.640;10.050;2024-02-21T11:16:22;101241.41;;;9.01;100.00
23574;BME280;11965;53.640;10.050;2024-02-21T11:18:49;101229.31;;;8.85;100.00
23574;BME280;11965;53.640;10.050;2024-02-21T11:21:16;101235.53;;;8.96;100.00
23574;BME280;11965;53.640;10.050;2024-02-21T11:23:43;101233.44;;;9.06;100.00
23574;BME280;11965;53.640;10.050;2024-02-21T11:26:18;101228.81;;;8.90;100.00
23574;BME280;11965;53.640;10.050;2024-02-21T11:28:57;101224.63;;;8.94;100.00
23574;BME280;11965;53.640;10.050;2024-02-21T11:31:25;101223.78;;;8.94;100.00
23574;BME280;11965;53.640;10.050;2024-02-21T11:33:53;101220.16;;;8.93;100.00
23574;BME280;11965;53.640;10.050;2024-02-21T11:36:25;101218.97;;;8.79;100.00
23574;BME280;11965;53.640;10.050;2024-02-21T11:38:52;101207.56;;;8.66;100.00
23574;BME280;11965;53.640;10.050;2024-02-21T11:41:20;101208.06;;;8.78;100.00
23574;BME280;11965;53.640;10.050;2024-02-21T11:43:48;101215.69;;;8.92;100.00
23574;BME280;11965;53.640;10.050;2024-02-21T11:46:18;101200.31;;;8.81;100.00
23574;BME280;11965;53.640;10.050;2024-02-21T11:48:45;101194.59;;;8.83;100.00
23574;BME280;11965;53.640;10.050;2024-02-21T11:51:24;101195.13;;;8.87;100.00
23574;BME280;11965;53.640;10.050;2024-02-21T11:53:52;101192.38;;;8.87;100.00
23574;BME280;11965;53.640;10.050;2024-02-21T11:56:19;101189.59;;;8.95;100.00
23574;BME280;11965;53.640;10.050;2024-02-21T11:58:48;101186.09;;;9.01;100.00
23574;BME280;11965;53.640;10.050;2024-02-21T12:01:17;101180.97;;;8.81;100.00
23574;BME280;11965;53.640;10.050;2024-02-21T12:03:44;101171.31;;;8.69;100.00
23574;BME280;11965;53.640;10.050;2024-02-21T12:06:16;101173.22;;;8.60;100.00
23574;BME280;11965;53.640;10.050;2024-02-21T12:08:47;101168.03;;;8.74;100.00
23574;BME280;11965;53.640;10.050;2024-02-21T12:11:21;101170.25;;;8.78;100.00
23574;BME280;11965;53.640;10.050;2024-02-21T12:13:58;101160.09;;;8.62;100.00
23574;BME280;11965;53.640;10.050;2024-02-21T12:16:29;101152.78;;;8.78;100.00
23574;BME280;11965;53.640;10.050;2024-02-21T12:18:56;101155.91;;;8.75;100.00
23574;BME280;11965;53.640;10.050;2024-02-21T12:21:26;101161.66;;;8.65;100.00
23574;BME280;11965;53.640;10.050;2024-02-21T12:23:54;101154.38;;;8.72;100.00
23574;BME280;11965;53.640;10.050;2024-02-21T12:26:21;101157.44;;;8.85;100.00
23574;BME280;11965;53.640;10.050;2024-02-21T12:28:48;101152.63;;;8.88;100.00
23574;BME280;11965;53.640;10.050;2024-02-21T12:31:15;101152.78;;;8.86;100.00
23574;BME280;11965;53.640;10.050;2024-02-21T12:33:44;101150.22;;;8.76;100.00
23574;BME280;11965;53.640;10.050;2024-02-21T12:36:11;101147.63;;;8.75;100.00
23574;BME280;11965;53.640;10.050;2024-02-21T12:38:38;101157.66;;;8.68;100.00
23574;BME280;11965;53.640;10.050;2024-02-21T12:41:05;101153.69;;;8.62;100.00
23574;BME280;11965;53.640;10.050;2024-02-21T12:43:33;101151.97;;;8.53;100.00